GBYD/BJL METAR and TAF weather

Enter ICAO airport designator
Station Type Date Time Source
GBYD METAR 2019/08/22 02:00 UTC NOAA

GBYD 220200Z 12007KT 9000 RA BKN010 24/24 Q1009


Station Type Date Time Source
GBYD Decoded METAR 2019/08/22 02:00 UTC NOAA

Station name not available
Aug 21, 2019 - 10:00 PM EDT / 2019.08.22 0200 UTC
Wind: from the ESE (120 degrees) at 8 MPH (7 KT):0
Visibility: 5 mile(s):0
Sky conditions: mostly cloudy
Weather: rain
Temperature: 75 F (24 C)
Dew Point: 75 F (24 C)
Relative Humidity: 100%
Pressure (altimeter): 29.80 in. Hg (1009 hPa)
ob: GBYD 220200Z 12007KT 9000 RA BKN010 24/24 Q1009
cycle: 2

Station Type Date Time Source
GBYD TAF 2019/08/21 18:24 UTC NOAA

TAF TAF GBYD 211730Z 2118/2224 VRB08KT 9999 SCT012
TEMPO 2119/2101 4000 TSRA BKN011 FEW018CB

Example: see airport list